Aérodrome :
LOGIN :

S'inscrire | Disclaimer

   EN    FR    IT 

 










Légende :    VFR   VFR Marginal   IFR   IFR Intensif   IFR Très Intensif
Visi : 
Plafond : 
>= 8 km
>= 3000ft
5 à 8 km
1000 à 3000 ft
1500m à 5 km
500 à 1000 ft
800 à 1500m
200 à 500 ft
< 800m
< 200 ft
Symboles :   Orages  Brouillard  Fortes neiges  Fortes précipitations  Vent > 20 kt
SIGMETs :   Divers  Orages  Givrage  Turbulence  Onde Orograph.  Cendres Volcan.






- Altitude de l'aérodrome : 468 ft
- Code IATA : BQT


UMBB - Brest

DERNIER METAR :
  • 130730Z 16007G10MPS 4900 BR OVC009 03/M01 Q1001 R11/290050 NOSIG

METARs EXPIRÉS :
  • 130700Z 13007G10MPS 4800 BR OVC009 03/M01 Q1001 R11/290050 NOSIG
  • 130650Z 14007G10MPS 4600 BR OVC009 03/00 Q1001 R11/290050 NOSIG
  • 130630Z 14007G10MPS 5000 BR OVC011 03/00 Q1001 R11/290050 NOSIG
  • 130600Z 14005G08MPS 5000 BR OVC011 03/00 Q1001 R11/290050 NOSIG
  • 130530Z 17006G09MPS 4500 BR OVC009 03/01 Q1002 NOSIG
  • 130500Z 16005G08MPS 4500 BR OVC009 03/01 Q1002 NOSIG

TAF TAF UMBB
Valide du 13 à 06h jusqu'au 13 à 15h UTC


130500Z 1306/1315 16005G10MPS 4000 BR BKN010
TEMPO 1306/1309 18007G12MPS 1100 SHRASN BR BKN003 SCT015CB
TEMPO 1309/1315 18007G12MPS 2100 BR BKN007



MET'MAP, la Météo Aéronautique d'un coup d'oeil ! - Copyright ORBIFLY Décembre 2007 - Disclaimer

ORBIFLY MET'MAP TEAM :

Programmation & Développement : Alexandra Zaïnal
Sur une idée originale de : Baudouin d'Aumeries
Assistance à la programmation : Marc-Olivier Méhu
Soutien technique & logistique : Manuel Goepfert

Contact : metmap@orbifly.com




SOURCES & CREDITS :

   NOAA